sensor_id;sensor_type;location;lat;lon;timestamp;P1;durP1;ratioP1;P2;durP2;ratioP2
31073;SDS011;17730;53.552;9.940;2022-11-20T00:00:00;8.35;;;4.03;;
31073;SDS011;17730;53.552;9.940;2022-11-20T00:02:25;10.30;;;4.45;;
31073;SDS011;17730;53.552;9.940;2022-11-20T00:04:51;7.82;;;4.25;;
31073;SDS011;17730;53.552;9.940;2022-11-20T00:07:17;9.27;;;3.80;;
31073;SDS011;17730;53.552;9.940;2022-11-20T00:09:42;8.90;;;3.78;;
31073;SDS011;17730;53.552;9.940;2022-11-20T00:12:08;7.68;;;4.07;;
31073;SDS011;17730;53.552;9.940;2022-11-20T00:14:33;7.30;;;4.15;;
31073;SDS011;17730;53.552;9.940;2022-11-20T00:16:59;9.10;;;3.90;;
31073;SDS011;17730;53.552;9.940;2022-11-20T00:19:25;7.43;;;3.92;;
31073;SDS011;17730;53.552;9.940;2022-11-20T00:21:50;8.07;;;3.50;;
31073;SDS011;17730;53.552;9.940;2022-11-20T00:24:18;7.55;;;4.03;;
31073;SDS011;17730;53.552;9.940;2022-11-20T00:26:44;9.43;;;4.25;;
31073;SDS011;17730;53.552;9.940;2022-11-20T00:29:09;11.20;;;3.88;;
31073;SDS011;17730;53.552;9.940;2022-11-20T00:31:35;7.60;;;4.18;;
31073;SDS011;17730;53.552;9.940;2022-11-20T00:34:01;9.02;;;4.03;;
31073;SDS011;17730;53.552;9.940;2022-11-20T00:36:27;7.53;;;4.05;;
31073;SDS011;17730;53.552;9.940;2022-11-20T00:38:55;11.18;;;3.70;;
31073;SDS011;17730;53.552;9.940;2022-11-20T00:41:22;7.90;;;4.25;;
31073;SDS011;17730;53.552;9.940;2022-11-20T00:43:48;10.25;;;4.22;;
31073;SDS011;17730;53.552;9.940;2022-11-20T00:46:18;10.38;;;4.47;;
31073;SDS011;17730;53.552;9.940;2022-11-20T00:48:45;8.13;;;3.80;;
31073;SDS011;17730;53.552;9.940;2022-11-20T00:51:12;16.75;;;4.40;;
31073;SDS011;17730;53.552;9.940;2022-11-20T00:53:39;9.48;;;4.20;;
31073;SDS011;17730;53.552;9.940;2022-11-20T00:56:07;9.45;;;4.22;;
31073;SDS011;17730;53.552;9.940;2022-11-20T00:58:37;10.18;;;3.90;;
31073;SDS011;17730;53.552;9.940;2022-11-20T01:01:05;6.40;;;3.65;;
31073;SDS011;17730;53.552;9.940;2022-11-20T01:03:33;9.10;;;4.60;;
31073;SDS011;17730;53.552;9.940;2022-11-20T01:06:04;7.57;;;4.75;;
31073;SDS011;17730;53.552;9.940;2022-11-20T01:08:38;7.82;;;3.88;;
31073;SDS011;17730;53.552;9.940;2022-11-20T01:11:08;7.60;;;4.35;;
31073;SDS011;17730;53.552;9.940;2022-11-20T01:13:35;8.63;;;4.07;;
31073;SDS011;17730;53.552;9.940;2022-11-20T01:16:15;10.50;;;4.30;;
31073;SDS011;17730;53.552;9.940;2022-11-20T01:18:45;12.13;;;5.03;;
31073;SDS011;17730;53.552;9.940;2022-11-20T01:21:14;12.38;;;4.60;;
31073;SDS011;17730;53.552;9.940;2022-11-20T01:23:42;10.00;;;4.75;;
31073;SDS011;17730;53.552;9.940;2022-11-20T01:26:10;11.23;;;4.43;;
31073;SDS011;17730;53.552;9.940;2022-11-20T01:28:37;7.53;;;4.25;;
31073;SDS011;17730;53.552;9.940;2022-11-20T01:31:49;11.02;;;4.95;;
31073;SDS011;17730;53.552;9.940;2022-11-20T01:33:52;8.40;;;4.00;;
31073;SDS011;17730;53.552;9.940;2022-11-20T01:36:20;9.40;;;4.15;;
31073;SDS011;17730;53.552;9.940;2022-11-20T01:38:47;8.52;;;4.18;;
31073;SDS011;17730;53.552;9.940;2022-11-20T01:41:13;8.35;;;3.95;;
31073;SDS011;17730;53.552;9.940;2022-11-20T01:43:59;6.63;;;4.30;;
31073;SDS011;17730;53.552;9.940;2022-11-20T01:46:26;6.43;;;4.20;;
31073;SDS011;17730;53.552;9.940;2022-11-20T01:51:47;5.95;;;3.88;;
31073;SDS011;17730;53.552;9.940;2022-11-20T01:54:25;9.10;;;4.10;;
31073;SDS011;17730;53.552;9.940;2022-11-20T01:56:59;8.85;;;4.50;;
31073;SDS011;17730;53.552;9.940;2022-11-20T01:59:26;9.27;;;5.10;;
31073;SDS011;17730;53.552;9.940;2022-11-20T02:01:54;11.27;;;4.95;;
31073;SDS011;17730;53.552;9.940;2022-11-20T02:04:20;8.38;;;4.90;;
31073;SDS011;17730;53.552;9.940;2022-11-20T02:06:48;10.07;;;4.40;;
31073;SDS011;17730;53.552;9.940;2022-11-20T02:09:18;8.75;;;4.20;;
31073;SDS011;17730;53.552;9.940;2022-11-20T02:11:44;13.23;;;4.68;;
31073;SDS011;17730;53.552;9.940;2022-11-20T02:14:09;8.73;;;4.57;;
31073;SDS011;17730;53.552;9.940;2022-11-20T02:16:37;9.25;;;4.45;;
31073;SDS011;17730;53.552;9.940;2022-11-20T02:19:10;8.90;;;4.88;;
31073;SDS011;17730;53.552;9.940;2022-11-20T02:22:10;8.68;;;4.80;;
31073;SDS011;17730;53.552;9.940;2022-11-20T02:24:38;9.90;;;4.40;;
31073;SDS011;17730;53.552;9.940;2022-11-20T02:27:11;9.10;;;5.45;;
31073;SDS011;17730;53.552;9.940;2022-11-20T02:29:49;8.30;;;4.70;;
31073;SDS011;17730;53.552;9.940;2022-11-20T02:32:21;8.65;;;4.90;;
31073;SDS011;17730;53.552;9.940;2022-11-20T02:34:52;9.77;;;4.63;;
31073;SDS011;17730;53.552;9.940;2022-11-20T02:37:18;10.60;;;4.97;;
31073;SDS011;17730;53.552;9.940;2022-11-20T02:39:46;10.13;;;4.82;;
31073;SDS011;17730;53.552;9.940;2022-11-20T02:42:13;9.50;;;4.72;;
31073;SDS011;17730;53.552;9.940;2022-11-20T02:44:39;10.32;;;4.88;;
31073;SDS011;17730;53.552;9.940;2022-11-20T02:47:05;9.95;;;4.95;;
31073;SDS011;17730;53.552;9.940;2022-11-20T02:49:30;9.63;;;5.15;;
31073;SDS011;17730;53.552;9.940;2022-11-20T02:51:56;7.53;;;4.57;;
31073;SDS011;17730;53.552;9.940;2022-11-20T02:54:22;10.27;;;5.43;;
31073;SDS011;17730;53.552;9.940;2022-11-20T02:56:48;8.95;;;4.90;;
31073;SDS011;17730;53.552;9.940;2022-11-20T02:59:14;10.20;;;5.43;;
31073;SDS011;17730;53.552;9.940;2022-11-20T03:01:40;14.43;;;5.18;;
31073;SDS011;17730;53.552;9.940;2022-11-20T03:04:05;12.50;;;5.13;;
31073;SDS011;17730;53.552;9.940;2022-11-20T03:06:31;12.07;;;4.93;;
31073;SDS011;17730;53.552;9.940;2022-11-20T03:08:56;7.82;;;5.10;;
31073;SDS011;17730;53.552;9.940;2022-11-20T03:11:22;10.82;;;5.38;;
31073;SDS011;17730;53.552;9.940;2022-11-20T03:13:48;6.85;;;5.00;;
31073;SDS011;17730;53.552;9.940;2022-11-20T03:16:18;8.05;;;4.90;;
31073;SDS011;17730;53.552;9.940;2022-11-20T03:21:12;11.57;;;5.47;;
31073;SDS011;17730;53.552;9.940;2022-11-20T03:23:38;10.25;;;5.75;;
31073;SDS011;17730;53.552;9.940;2022-11-20T03:26:23;8.05;;;4.68;;
31073;SDS011;17730;53.552;9.940;2022-11-20T03:28:51;12.13;;;5.30;;
31073;SDS011;17730;53.552;9.940;2022-11-20T03:31:20;9.65;;;4.82;;
31073;SDS011;17730;53.552;9.940;2022-11-20T03:33:47;11.13;;;4.97;;
31073;SDS011;17730;53.552;9.940;2022-11-20T03:36:13;8.52;;;4.85;;
31073;SDS011;17730;53.552;9.940;2022-11-20T03:38:40;9.82;;;5.57;;
31073;SDS011;17730;53.552;9.940;2022-11-20T03:41:17;8.57;;;4.93;;
31073;SDS011;17730;53.552;9.940;2022-11-20T03:43:48;7.70;;;4.55;;
31073;SDS011;17730;53.552;9.940;2022-11-20T03:46:17;9.32;;;5.05;;
31073;SDS011;17730;53.552;9.940;2022-11-20T03:48:43;8.52;;;4.50;;
31073;SDS011;17730;53.552;9.940;2022-11-20T03:51:10;12.95;;;4.80;;
31073;SDS011;17730;53.552;9.940;2022-11-20T03:53:38;9.55;;;5.63;;
31073;SDS011;17730;53.552;9.940;2022-11-20T03:56:05;7.80;;;5.03;;
31073;SDS011;17730;53.552;9.940;2022-11-20T03:58:32;8.18;;;5.30;;
31073;SDS011;17730;53.552;9.940;2022-11-20T04:01:04;7.93;;;4.45;;
31073;SDS011;17730;53.552;9.940;2022-11-20T04:03:35;9.80;;;5.10;;
31073;SDS011;17730;53.552;9.940;2022-11-20T04:06:11;7.82;;;4.50;;
31073;SDS011;17730;53.552;9.940;2022-11-20T04:08:38;8.15;;;4.75;;
31073;SDS011;17730;53.552;9.940;2022-11-20T04:13:40;12.60;;;5.07;;
31073;SDS011;17730;53.552;9.940;2022-11-20T04:16:07;9.10;;;5.03;;
31073;SDS011;17730;53.552;9.940;2022-11-20T04:18:34;10.38;;;4.95;;
31073;SDS011;17730;53.552;9.940;2022-11-20T04:21:00;9.07;;;4.82;;
31073;SDS011;17730;53.552;9.940;2022-11-20T04:23:26;8.13;;;4.72;;
31073;SDS011;17730;53.552;9.940;2022-11-20T04:25:52;10.68;;;5.10;;
31073;SDS011;17730;53.552;9.940;2022-11-20T04:28:18;8.90;;;4.80;;
31073;SDS011;17730;53.552;9.940;2022-11-20T04:30:43;10.32;;;5.00;;
31073;SDS011;17730;53.552;9.940;2022-11-20T04:33:09;11.90;;;5.05;;
31073;SDS011;17730;53.552;9.940;2022-11-20T04:35:35;10.77;;;5.10;;
31073;SDS011;17730;53.552;9.940;2022-11-20T04:38:02;10.35;;;4.80;;
31073;SDS011;17730;53.552;9.940;2022-11-20T04:40:28;8.80;;;4.93;;
31073;SDS011;17730;53.552;9.940;2022-11-20T04:42:54;9.43;;;4.85;;
31073;SDS011;17730;53.552;9.940;2022-11-20T04:45:20;9.80;;;5.22;;
31073;SDS011;17730;53.552;9.940;2022-11-20T04:47:46;12.20;;;4.80;;
31073;SDS011;17730;53.552;9.940;2022-11-20T04:50:11;9.18;;;5.07;;
31073;SDS011;17730;53.552;9.940;2022-11-20T04:52:37;6.72;;;4.30;;
31073;SDS011;17730;53.552;9.940;2022-11-20T04:55:02;10.57;;;5.30;;
31073;SDS011;17730;53.552;9.940;2022-11-20T04:57:29;8.90;;;4.72;;
31073;SDS011;17730;53.552;9.940;2022-11-20T04:59:54;10.80;;;4.85;;
31073;SDS011;17730;53.552;9.940;2022-11-20T05:02:20;9.40;;;4.85;;
31073;SDS011;17730;53.552;9.940;2022-11-20T05:04:46;8.15;;;4.78;;
31073;SDS011;17730;53.552;9.940;2022-11-20T05:07:11;8.70;;;4.47;;
31073;SDS011;17730;53.552;9.940;2022-11-20T05:09:37;10.07;;;5.10;;
31073;SDS011;17730;53.552;9.940;2022-11-20T05:12:03;10.13;;;5.22;;
31073;SDS011;17730;53.552;9.940;2022-11-20T05:14:28;11.93;;;4.95;;
31073;SDS011;17730;53.552;9.940;2022-11-20T05:16:54;9.63;;;5.05;;
31073;SDS011;17730;53.552;9.940;2022-11-20T05:19:20;12.70;;;4.72;;
31073;SDS011;17730;53.552;9.940;2022-11-20T05:21:45;9.32;;;5.03;;
31073;SDS011;17730;53.552;9.940;2022-11-20T05:24:11;10.63;;;5.32;;
31073;SDS011;17730;53.552;9.940;2022-11-20T05:26:37;12.75;;;5.00;;
31073;SDS011;17730;53.552;9.940;2022-11-20T05:29:02;10.35;;;4.72;;
31073;SDS011;17730;53.552;9.940;2022-11-20T05:31:28;8.00;;;4.93;;
31073;SDS011;17730;53.552;9.940;2022-11-20T05:33:54;10.23;;;4.85;;
31073;SDS011;17730;53.552;9.940;2022-11-20T05:36:21;10.48;;;5.75;;
31073;SDS011;17730;53.552;9.940;2022-11-20T05:38:46;10.07;;;5.00;;
31073;SDS011;17730;53.552;9.940;2022-11-20T05:41:16;9.77;;;5.68;;
31073;SDS011;17730;53.552;9.940;2022-11-20T05:43:44;9.02;;;5.38;;
31073;SDS011;17730;53.552;9.940;2022-11-20T05:46:11;9.00;;;5.18;;
31073;SDS011;17730;53.552;9.940;2022-11-20T05:48:39;8.25;;;5.47;;
31073;SDS011;17730;53.552;9.940;2022-11-20T05:51:08;10.30;;;5.18;;
31073;SDS011;17730;53.552;9.940;2022-11-20T05:53:35;12.05;;;5.85;;
31073;SDS011;17730;53.552;9.940;2022-11-20T05:56:06;10.75;;;5.32;;
31073;SDS011;17730;53.552;9.940;2022-11-20T05:58:34;8.77;;;4.80;;
31073;SDS011;17730;53.552;9.940;2022-11-20T06:01:05;13.43;;;5.97;;
31073;SDS011;17730;53.552;9.940;2022-11-20T06:03:35;14.77;;;7.60;;
31073;SDS011;17730;53.552;9.940;2022-11-20T06:06:02;13.60;;;6.18;;
31073;SDS011;17730;53.552;9.940;2022-11-20T06:08:29;13.50;;;6.35;;
31073;SDS011;17730;53.552;9.940;2022-11-20T06:10:55;12.20;;;6.15;;
31073;SDS011;17730;53.552;9.940;2022-11-20T06:13:21;12.32;;;6.28;;
31073;SDS011;17730;53.552;9.940;2022-11-20T06:15:48;16.38;;;7.47;;
31073;SDS011;17730;53.552;9.940;2022-11-20T06:18:17;15.10;;;7.68;;
31073;SDS011;17730;53.552;9.940;2022-11-20T06:20:43;16.85;;;8.45;;
31073;SDS011;17730;53.552;9.940;2022-11-20T06:23:09;17.27;;;8.65;;
31073;SDS011;17730;53.552;9.940;2022-11-20T06:25:39;13.63;;;7.65;;
31073;SDS011;17730;53.552;9.940;2022-11-20T06:28:06;20.70;;;7.90;;
31073;SDS011;17730;53.552;9.940;2022-11-20T06:30:32;13.95;;;6.63;;
31073;SDS011;17730;53.552;9.940;2022-11-20T06:32:57;9.73;;;6.00;;
31073;SDS011;17730;53.552;9.940;2022-11-20T06:35:23;10.07;;;5.60;;
31073;SDS011;17730;53.552;9.940;2022-11-20T06:37:48;11.25;;;5.68;;
31073;SDS011;17730;53.552;9.940;2022-11-20T06:40:14;11.13;;;6.50;;
31073;SDS011;17730;53.552;9.940;2022-11-20T06:42:40;9.82;;;5.60;;
31073;SDS011;17730;53.552;9.940;2022-11-20T06:45:05;8.60;;;5.55;;
31073;SDS011;17730;53.552;9.940;2022-11-20T06:47:32;11.48;;;5.70;;
31073;SDS011;17730;53.552;9.940;2022-11-20T06:49:58;8.25;;;4.90;;
31073;SDS011;17730;53.552;9.940;2022-11-20T06:52:23;13.43;;;5.63;;
31073;SDS011;17730;53.552;9.940;2022-11-20T06:54:49;8.82;;;5.13;;
31073;SDS011;17730;53.552;9.940;2022-11-20T06:57:14;7.85;;;4.78;;
31073;SDS011;17730;53.552;9.940;2022-11-20T06:59:40;9.98;;;5.18;;
31073;SDS011;17730;53.552;9.940;2022-11-20T07:02:09;12.93;;;5.60;;
31073;SDS011;17730;53.552;9.940;2022-11-20T07:04:35;11.25;;;5.35;;
31073;SDS011;17730;53.552;9.940;2022-11-20T07:07:01;13.15;;;5.40;;
31073;SDS011;17730;53.552;9.940;2022-11-20T07:09:27;13.68;;;5.88;;
31073;SDS011;17730;53.552;9.940;2022-11-20T07:11:52;9.02;;;5.25;;
31073;SDS011;17730;53.552;9.940;2022-11-20T07:14:18;14.55;;;5.80;;
31073;SDS011;17730;53.552;9.940;2022-11-20T07:16:43;13.63;;;6.63;;
31073;SDS011;17730;53.552;9.940;2022-11-20T07:19:09;13.10;;;7.10;;
31073;SDS011;17730;53.552;9.940;2022-11-20T07:21:35;8.63;;;5.60;;
31073;SDS011;17730;53.552;9.940;2022-11-20T07:24:00;11.30;;;6.15;;
31073;SDS011;17730;53.552;9.940;2022-11-20T07:26:26;16.33;;;6.70;;
31073;SDS011;17730;53.552;9.940;2022-11-20T07:28:52;12.55;;;7.10;;
31073;SDS011;17730;53.552;9.940;2022-11-20T07:31:17;14.55;;;7.03;;
31073;SDS011;17730;53.552;9.940;2022-11-20T07:33:43;14.90;;;6.53;;
31073;SDS011;17730;53.552;9.940;2022-11-20T07:36:08;15.40;;;6.63;;
31073;SDS011;17730;53.552;9.940;2022-11-20T07:38:34;16.00;;;7.47;;
31073;SDS011;17730;53.552;9.940;2022-11-20T07:41:00;18.63;;;7.20;;
31073;SDS011;17730;53.552;9.940;2022-11-20T07:43:26;11.48;;;7.47;;
31073;SDS011;17730;53.552;9.940;2022-11-20T07:45:54;14.77;;;8.02;;
31073;SDS011;17730;53.552;9.940;2022-11-20T07:48:21;10.95;;;6.85;;
31073;SDS011;17730;53.552;9.940;2022-11-20T07:50:47;13.57;;;8.30;;
31073;SDS011;17730;53.552;9.940;2022-11-20T07:53:12;12.65;;;7.18;;
31073;SDS011;17730;53.552;9.940;2022-11-20T07:55:39;13.80;;;7.00;;
31073;SDS011;17730;53.552;9.940;2022-11-20T07:58:05;13.90;;;6.50;;
31073;SDS011;17730;53.552;9.940;2022-11-20T08:00:30;13.73;;;7.32;;
31073;SDS011;17730;53.552;9.940;2022-11-20T08:02:56;16.58;;;7.43;;
31073;SDS011;17730;53.552;9.940;2022-11-20T08:05:22;13.38;;;6.90;;
31073;SDS011;17730;53.552;9.940;2022-11-20T08:07:48;13.27;;;7.35;;
31073;SDS011;17730;53.552;9.940;2022-11-20T08:10:14;15.05;;;7.03;;
31073;SDS011;17730;53.552;9.940;2022-11-20T08:12:44;14.65;;;6.97;;
31073;SDS011;17730;53.552;9.940;2022-11-20T08:15:30;9.90;;;6.35;;
31073;SDS011;17730;53.552;9.940;2022-11-20T08:18:07;14.93;;;6.90;;
31073;SDS011;17730;53.552;9.940;2022-11-20T08:20:34;11.65;;;6.70;;
31073;SDS011;17730;53.552;9.940;2022-11-20T08:23:00;13.75;;;6.40;;
31073;SDS011;17730;53.552;9.940;2022-11-20T08:25:28;13.80;;;6.60;;
31073;SDS011;17730;53.552;9.940;2022-11-20T08:27:56;10.25;;;5.95;;
31073;SDS011;17730;53.552;9.940;2022-11-20T08:32:52;12.38;;;5.38;;
31073;SDS011;17730;53.552;9.940;2022-11-20T08:35:18;10.40;;;5.38;;
31073;SDS011;17730;53.552;9.940;2022-11-20T08:37:47;8.93;;;5.20;;
31073;SDS011;17730;53.552;9.940;2022-11-20T08:40:14;10.23;;;5.32;;
31073;SDS011;17730;53.552;9.940;2022-11-20T08:42:49;10.30;;;4.93;;
31073;SDS011;17730;53.552;9.940;2022-11-20T08:45:16;6.18;;;3.97;;
31073;SDS011;17730;53.552;9.940;2022-11-20T08:47:43;8.77;;;4.35;;
31073;SDS011;17730;53.552;9.940;2022-11-20T08:50:10;11.13;;;4.22;;
31073;SDS011;17730;53.552;9.940;2022-11-20T08:52:36;8.38;;;4.20;;
31073;SDS011;17730;53.552;9.940;2022-11-20T08:55:03;10.43;;;4.55;;
31073;SDS011;17730;53.552;9.940;2022-11-20T08:57:32;7.80;;;3.72;;
31073;SDS011;17730;53.552;9.940;2022-11-20T08:59:59;6.55;;;3.95;;
31073;SDS011;17730;53.552;9.940;2022-11-20T09:02:24;6.63;;;4.03;;
31073;SDS011;17730;53.552;9.940;2022-11-20T09:04:51;9.25;;;4.25;;
31073;SDS011;17730;53.552;9.940;2022-11-20T09:07:18;8.00;;;4.50;;
31073;SDS011;17730;53.552;9.940;2022-11-20T09:09:44;7.05;;;4.32;;
31073;SDS011;17730;53.552;9.940;2022-11-20T09:12:09;6.28;;;4.15;;
31073;SDS011;17730;53.552;9.940;2022-11-20T09:14:35;7.35;;;4.40;;
31073;SDS011;17730;53.552;9.940;2022-11-20T09:17:01;6.65;;;3.90;;
31073;SDS011;17730;53.552;9.940;2022-11-20T09:19:27;11.30;;;4.70;;
31073;SDS011;17730;53.552;9.940;2022-11-20T09:21:52;7.28;;;3.72;;
31073;SDS011;17730;53.552;9.940;2022-11-20T09:24:18;7.20;;;4.00;;
31073;SDS011;17730;53.552;9.940;2022-11-20T09:26:46;7.28;;;3.17;;
31073;SDS011;17730;53.552;9.940;2022-11-20T09:29:12;5.22;;;3.13;;
31073;SDS011;17730;53.552;9.940;2022-11-20T09:31:38;4.20;;;3.00;;
31073;SDS011;17730;53.552;9.940;2022-11-20T09:34:03;11.45;;;3.88;;
31073;SDS011;17730;53.552;9.940;2022-11-20T09:36:29;11.00;;;2.97;;
31073;SDS011;17730;53.552;9.940;2022-11-20T09:38:55;5.20;;;2.40;;
31073;SDS011;17730;53.552;9.940;2022-11-20T09:44:38;5.20;;;3.03;;
31073;SDS011;17730;53.552;9.940;2022-11-20T09:52:22;6.63;;;3.33;;
31073;SDS011;17730;53.552;9.940;2022-11-20T09:55:00;6.00;;;3.08;;
31073;SDS011;17730;53.552;9.940;2022-11-20T09:57:31;6.03;;;3.45;;
31073;SDS011;17730;53.552;9.940;2022-11-20T10:00:04;5.78;;;3.53;;
31073;SDS011;17730;53.552;9.940;2022-11-20T10:02:36;4.30;;;3.17;;
31073;SDS011;17730;53.552;9.940;2022-11-20T10:05:15;5.00;;;3.40;;
31073;SDS011;17730;53.552;9.940;2022-11-20T10:19:23;6.55;;;3.03;;
31073;SDS011;17730;53.552;9.940;2022-11-20T10:27:24;6.03;;;3.30;;
31073;SDS011;17730;53.552;9.940;2022-11-20T10:30:01;3.63;;;3.00;;
31073;SDS011;17730;53.552;9.940;2022-11-20T10:32:31;5.20;;;2.95;;
31073;SDS011;17730;53.552;9.940;2022-11-20T10:37:47;4.13;;;3.08;;
31073;SDS011;17730;53.552;9.940;2022-11-20T10:40:20;4.85;;;2.88;;
31073;SDS011;17730;53.552;9.940;2022-11-20T10:42:54;7.32;;;3.30;;
31073;SDS011;17730;53.552;9.940;2022-11-20T10:47:52;4.20;;;2.65;;
31073;SDS011;17730;53.552;9.940;2022-11-20T10:50:21;3.50;;;2.80;;
31073;SDS011;17730;53.552;9.940;2022-11-20T10:52:56;4.43;;;2.85;;
31073;SDS011;17730;53.552;9.940;2022-11-20T10:56:00;4.30;;;3.20;;
31073;SDS011;17730;53.552;9.940;2022-11-20T10:58:52;4.72;;;2.92;;
31073;SDS011;17730;53.552;9.940;2022-11-20T11:01:42;8.20;;;4.45;;
31073;SDS011;17730;53.552;9.940;2022-11-20T11:06:57;5.05;;;3.47;;
31073;SDS011;17730;53.552;9.940;2022-11-20T11:09:33;5.57;;;3.47;;
31073;SDS011;17730;53.552;9.940;2022-11-20T11:12:05;5.88;;;3.88;;
31073;SDS011;17730;53.552;9.940;2022-11-20T11:14:45;6.00;;;3.30;;
31073;SDS011;17730;53.552;9.940;2022-11-20T11:17:26;5.15;;;3.75;;
31073;SDS011;17730;53.552;9.940;2022-11-20T11:20:06;7.03;;;4.53;;
31073;SDS011;17730;53.552;9.940;2022-11-20T11:22:42;4.80;;;3.40;;
31073;SDS011;17730;53.552;9.940;2022-11-20T11:25:19;9.45;;;3.70;;
31073;SDS011;17730;53.552;9.940;2022-11-20T11:27:51;6.75;;;3.95;;
31073;SDS011;17730;53.552;9.940;2022-11-20T11:30:18;9.75;;;3.90;;
31073;SDS011;17730;53.552;9.940;2022-11-20T11:32:45;5.40;;;3.42;;
31073;SDS011;17730;53.552;9.940;2022-11-20T11:35:27;6.75;;;3.30;;
31073;SDS011;17730;53.552;9.940;2022-11-20T11:37:54;8.15;;;4.30;;
31073;SDS011;17730;53.552;9.940;2022-11-20T11:40:29;7.32;;;3.65;;
31073;SDS011;17730;53.552;9.940;2022-11-20T11:43:05;7.45;;;4.47;;
31073;SDS011;17730;53.552;9.940;2022-11-20T11:46:01;9.52;;;3.35;;
31073;SDS011;17730;53.552;9.940;2022-11-20T11:48:27;11.30;;;5.88;;
31073;SDS011;17730;53.552;9.940;2022-11-20T11:50:52;7.20;;;4.03;;
31073;SDS011;17730;53.552;9.940;2022-11-20T11:53:19;5.20;;;3.58;;
31073;SDS011;17730;53.552;9.940;2022-11-20T11:55:56;5.22;;;3.00;;
31073;SDS011;17730;53.552;9.940;2022-11-20T11:58:52;5.78;;;3.30;;
31073;SDS011;17730;53.552;9.940;2022-11-20T12:01:32;6.95;;;3.45;;
31073;SDS011;17730;53.552;9.940;2022-11-20T12:04:16;7.72;;;4.65;;
31073;SDS011;17730;53.552;9.940;2022-11-20T12:06:47;25.17;;;9.02;;
31073;SDS011;17730;53.552;9.940;2022-11-20T12:09:17;19.10;;;8.38;;
31073;SDS011;17730;53.552;9.940;2022-11-20T12:11:55;7.03;;;4.45;;
31073;SDS011;17730;53.552;9.940;2022-11-20T12:14:33;3.15;;;2.05;;
31073;SDS011;17730;53.552;9.940;2022-11-20T12:17:01;3.53;;;2.10;;
31073;SDS011;17730;53.552;9.940;2022-11-20T12:19:31;8.40;;;4.18;;
31073;SDS011;17730;53.552;9.940;2022-11-20T12:22:06;8.10;;;3.78;;
31073;SDS011;17730;53.552;9.940;2022-11-20T12:30:36;4.63;;;2.90;;
31073;SDS011;17730;53.552;9.940;2022-11-20T12:33:19;3.40;;;2.65;;
31073;SDS011;17730;53.552;9.940;2022-11-20T12:36:25;3.28;;;2.60;;
31073;SDS011;17730;53.552;9.940;2022-11-20T12:41:40;5.72;;;3.50;;
31073;SDS011;17730;53.552;9.940;2022-11-20T12:44:52;3.40;;;2.67;;
31073;SDS011;17730;53.552;9.940;2022-11-20T12:47:45;4.50;;;3.13;;
31073;SDS011;17730;53.552;9.940;2022-11-20T12:53:31;4.50;;;3.30;;
31073;SDS011;17730;53.552;9.940;2022-11-20T13:01:40;4.63;;;3.03;;
31073;SDS011;17730;53.552;9.940;2022-11-20T13:07:03;5.03;;;3.20;;
31073;SDS011;17730;53.552;9.940;2022-11-20T13:09:32;13.65;;;5.28;;
31073;SDS011;17730;53.552;9.940;2022-11-20T13:14:40;9.73;;;4.10;;
31073;SDS011;17730;53.552;9.940;2022-11-20T13:20:02;7.57;;;3.58;;
31073;SDS011;17730;53.552;9.940;2022-11-20T13:22:51;5.03;;;2.75;;
31073;SDS011;17730;53.552;9.940;2022-11-20T13:25:33;7.72;;;2.22;;
31073;SDS011;17730;53.552;9.940;2022-11-20T13:28:03;3.92;;;1.77;;
31073;SDS011;17730;53.552;9.940;2022-11-20T13:30:50;2.53;;;1.70;;
31073;SDS011;17730;53.552;9.940;2022-11-20T13:33:25;1.92;;;1.58;;
31073;SDS011;17730;53.552;9.940;2022-11-20T13:36:04;4.72;;;2.25;;
31073;SDS011;17730;53.552;9.940;2022-11-20T13:38:51;6.22;;;3.38;;
31073;SDS011;17730;53.552;9.940;2022-11-20T13:43:52;6.10;;;3.70;;
31073;SDS011;17730;53.552;9.940;2022-11-20T13:46:22;5.57;;;3.85;;
31073;SDS011;17730;53.552;9.940;2022-11-20T13:48:50;9.10;;;3.70;;
31073;SDS011;17730;53.552;9.940;2022-11-20T14:00:07;4.40;;;2.50;;
31073;SDS011;17730;53.552;9.940;2022-11-20T14:02:32;7.88;;;4.18;;
31073;SDS011;17730;53.552;9.940;2022-11-20T14:04:58;8.25;;;3.65;;
31073;SDS011;17730;53.552;9.940;2022-11-20T14:07:27;7.18;;;3.15;;
31073;SDS011;17730;53.552;9.940;2022-11-20T14:09:59;5.10;;;3.45;;
31073;SDS011;17730;53.552;9.940;2022-11-20T14:12:29;8.32;;;4.63;;
31073;SDS011;17730;53.552;9.940;2022-11-20T14:14:57;5.95;;;3.78;;
31073;SDS011;17730;53.552;9.940;2022-11-20T14:17:28;7.28;;;3.45;;
31073;SDS011;17730;53.552;9.940;2022-11-20T14:20:00;3.67;;;2.70;;
31073;SDS011;17730;53.552;9.940;2022-11-20T14:22:31;4.95;;;3.20;;
31073;SDS011;17730;53.552;9.940;2022-11-20T14:25:05;31.83;;;11.25;;
31073;SDS011;17730;53.552;9.940;2022-11-20T14:27:37;11.32;;;4.55;;
31073;SDS011;17730;53.552;9.940;2022-11-20T14:30:06;6.32;;;3.15;;
31073;SDS011;17730;53.552;9.940;2022-11-20T14:32:45;5.97;;;3.17;;
31073;SDS011;17730;53.552;9.940;2022-11-20T14:35:18;3.13;;;2.60;;
31073;SDS011;17730;53.552;9.940;2022-11-20T14:42:57;4.68;;;2.72;;
31073;SDS011;17730;53.552;9.940;2022-11-20T14:45:24;6.75;;;2.95;;
31073;SDS011;17730;53.552;9.940;2022-11-20T14:47:55;4.40;;;2.80;;
31073;SDS011;17730;53.552;9.940;2022-11-20T14:52:55;4.88;;;2.88;;
31073;SDS011;17730;53.552;9.940;2022-11-20T14:55:30;5.47;;;2.72;;
31073;SDS011;17730;53.552;9.940;2022-11-20T14:58:05;4.90;;;3.47;;
31073;SDS011;17730;53.552;9.940;2022-11-20T15:00:52;4.35;;;3.08;;
31073;SDS011;17730;53.552;9.940;2022-11-20T15:03:22;5.70;;;3.40;;
31073;SDS011;17730;53.552;9.940;2022-11-20T15:05:49;4.00;;;2.60;;
31073;SDS011;17730;53.552;9.940;2022-11-20T15:08:16;4.40;;;2.67;;
31073;SDS011;17730;53.552;9.940;2022-11-20T15:10:59;4.85;;;3.63;;
31073;SDS011;17730;53.552;9.940;2022-11-20T15:15:54;5.38;;;3.03;;
31073;SDS011;17730;53.552;9.940;2022-11-20T15:18:22;6.47;;;3.13;;
31073;SDS011;17730;53.552;9.940;2022-11-20T15:21:02;5.28;;;2.90;;
31073;SDS011;17730;53.552;9.940;2022-11-20T15:23:34;25.27;;;10.50;;
31073;SDS011;17730;53.552;9.940;2022-11-20T15:25:59;13.82;;;6.13;;
31073;SDS011;17730;53.552;9.940;2022-11-20T15:33:22;7.50;;;3.55;;
31073;SDS011;17730;53.552;9.940;2022-11-20T15:35:48;7.45;;;4.18;;
31073;SDS011;17730;53.552;9.940;2022-11-20T15:38:14;13.75;;;7.25;;
31073;SDS011;17730;53.552;9.940;2022-11-20T15:40:39;12.63;;;6.60;;
31073;SDS011;17730;53.552;9.940;2022-11-20T15:43:05;7.90;;;4.57;;
31073;SDS011;17730;53.552;9.940;2022-11-20T15:45:42;6.05;;;3.47;;
31073;SDS011;17730;53.552;9.940;2022-11-20T15:48:12;8.48;;;4.28;;
31073;SDS011;17730;53.552;9.940;2022-11-20T15:53:33;36.58;;;15.50;;
31073;SDS011;17730;53.552;9.940;2022-11-20T15:55:59;31.80;;;17.10;;
31073;SDS011;17730;53.552;9.940;2022-11-20T15:58:24;37.28;;;23.25;;
31073;SDS011;17730;53.552;9.940;2022-11-20T16:00:51;11.57;;;6.30;;
31073;SDS011;17730;53.552;9.940;2022-11-20T16:03:17;8.57;;;5.10;;
31073;SDS011;17730;53.552;9.940;2022-11-20T16:05:43;8.27;;;4.82;;
31073;SDS011;17730;53.552;9.940;2022-11-20T16:08:09;7.65;;;4.50;;
31073;SDS011;17730;53.552;9.940;2022-11-20T16:10:35;6.72;;;4.35;;
31073;SDS011;17730;53.552;9.940;2022-11-20T16:13:01;10.88;;;5.07;;
31073;SDS011;17730;53.552;9.940;2022-11-20T16:15:46;17.85;;;7.40;;
31073;SDS011;17730;53.552;9.940;2022-11-20T16:18:18;7.53;;;4.40;;
31073;SDS011;17730;53.552;9.940;2022-11-20T16:20:46;8.68;;;3.53;;
31073;SDS011;17730;53.552;9.940;2022-11-20T16:23:13;8.88;;;4.88;;
31073;SDS011;17730;53.552;9.940;2022-11-20T16:25:40;9.60;;;4.85;;
31073;SDS011;17730;53.552;9.940;2022-11-20T16:28:06;13.70;;;6.60;;
31073;SDS011;17730;53.552;9.940;2022-11-20T16:30:32;20.35;;;9.07;;
31073;SDS011;17730;53.552;9.940;2022-11-20T16:32:59;8.05;;;4.22;;
31073;SDS011;17730;53.552;9.940;2022-11-20T16:35:28;13.07;;;5.90;;